Time;durP1;ratioP1;P1;durP2;ratioP2;P2;SDS_P1;SDS_P2;PMS_P1;PMS_P2;Temp;Humidity;BMP_temperature;BMP_pressure;BME280_temperature;BME280_humidity;BME280_pressure;Samples;Min_cycle;Max_cycle;Signal;HPM_P1;HPM_P2
2022/05/15 00:01:28;;;;;;;;;;;;;;;19.90;84.09;99371.16;5032599;28;20482;-39
2022/05/15 00:03:53;;;;;;;;;;;;;;;19.71;85.90;99381.13;5014125;28;19921;-39
2022/05/15 00:06:19;;;;;;;;;;;;;;;20.00;84.45;99372.25;5029472;28;19927;-39
2022/05/15 00:08:44;;;;;;;;;;;;;;;19.56;85.13;99368.03;5014254;28;19920;-39
2022/05/15 00:11:10;;;;;;;;;;;;;;;19.25;88.77;99374.38;5032730;28;20576;-38
2022/05/15 00:13:36;;;;;;;;;;;;;;;19.31;88.81;99370.53;5011549;28;19920;-39
2022/05/15 00:16:01;;;;;;;;;;;;;;;19.33;88.70;99366.03;5035008;28;20322;-39
2022/05/15 00:18:27;;;;;;;;;;;;;;;19.26;89.11;99368.19;5036060;28;19921;-39
2022/05/15 00:20:52;;;;;;;;;;;;;;;19.73;86.15;99366.16;5031820;28;20011;-38
2022/05/15 00:23:18;;;;;;;;;;;;;;;18.96;89.56;99374.38;5030838;28;19967;-39
2022/05/15 00:25:43;;;;;;;;;;;;;;;18.81;93.56;99373.50;5032234;28;19918;-38
2022/05/15 00:28:09;;;;;;;;;;;;;;;19.48;90.06;99362.47;5033060;28;20069;-39
2022/05/15 00:30:35;;;;;;;;;;;;;;;19.99;86.32;99365.31;5030251;28;20733;-38
2022/05/15 00:33:00;;;;;;;;;;;;;;;18.64;91.08;99373.66;5034036;28;19952;-38
2022/05/15 00:35:26;;;;;;;;;;;;;;;18.92;93.07;99364.22;5012625;28;20008;-39
2022/05/15 00:37:52;;;;;;;;;;;;;;;18.95;92.06;99372.69;5010199;28;19928;-39
2022/05/15 00:40:18;;;;;;;;;;;;;;;18.44;96.92;99371.38;5032423;28;19917;-39
2022/05/15 00:42:43;;;;;;;;;;;;;;;19.19;92.47;99367.72;5033260;28;19983;-38
2022/05/15 00:45:08;;;;;;;;;;;;;;;18.63;93.53;99366.75;5026730;28;19921;-38
2022/05/15 00:47:34;;;;;;;;;;;;;;;18.63;96.09;99373.75;5034002;28;20296;-39
2022/05/15 00:50:00;;;;;;;;;;;;;;;18.23;96.49;99376.91;5030960;28;19924;-39
2022/05/15 00:52:27;;;;;;;;;;;;;;;18.33;95.99;99380.66;5030632;28;20028;-39
2022/05/15 00:54:56;;;;;;;;;;;;;;;17.50;100.00;99390.50;5012140;28;20010;-39
2022/05/15 00:57:22;;;;;;;;;;;;;;;17.69;100.00;99384.28;5015893;28;20042;-39
2022/05/15 00:59:49;;;;;;;;;;;;;;;17.58;99.86;99386.63;5033674;28;20940;-38
2022/05/15 01:02:15;;;;;;;;;;;;;;;17.43;100.00;99386.53;5012151;28;19927;-39
2022/05/15 01:04:40;;;;;;;;;;;;;;;17.19;100.00;99391.28;5029693;28;19916;-39
2022/05/15 01:07:05;;;;;;;;;;;;;;;17.23;100.00;99387.59;5013939;28;20064;-39
2022/05/15 01:09:31;;;;;;;;;;;;;;;18.08;98.66;99375.19;5030636;28;20071;-39
2022/05/15 01:11:56;;;;;;;;;;;;;;;17.90;99.24;99372.69;5011501;28;19921;-39
2022/05/15 01:14:21;;;;;;;;;;;;;;;18.24;96.71;99368.16;5030608;28;19930;-39
2022/05/15 01:16:46;;;;;;;;;;;;;;;18.74;94.28;99359.13;5028102;28;20278;-39
2022/05/15 01:19:12;;;;;;;;;;;;;;;19.12;91.23;99353.38;5016510;28;19917;-39
2022/05/15 01:21:50;;;;;;;;;;;;;;;18.49;91.45;99361.50;5013624;28;19975;-38
2022/05/15 01:24:16;;;;;;;;;;;;;;;18.02;96.66;99370.31;5012959;28;20011;-39
2022/05/15 01:26:41;;;;;;;;;;;;;;;18.67;92.23;99362.19;5017407;28;19931;-40
2022/05/15 01:29:07;;;;;;;;;;;;;;;18.95;90.98;99351.81;5015383;28;19920;-40
2022/05/15 01:31:33;;;;;;;;;;;;;;;18.80;91.64;99364.00;5016042;28;19999;-39
2022/05/15 01:33:59;;;;;;;;;;;;;;;18.64;92.69;99359.78;5017002;28;20017;-39
2022/05/15 01:36:25;;;;;;;;;;;;;;;18.35;95.92;99351.91;5028673;28;20402;-39
2022/05/15 01:38:50;;;;;;;;;;;;;;;18.37;95.63;99360.47;5011380;28;19988;-39
2022/05/15 01:41:15;;;;;;;;;;;;;;;18.33;96.21;99362.41;5028607;28;20789;-39
2022/05/15 01:43:41;;;;;;;;;;;;;;;17.88;99.71;99358.91;5030035;28;20316;-39
2022/05/15 01:46:07;;;;;;;;;;;;;;;17.73;100.00;99370.16;5031949;28;19959;-39
2022/05/15 01:48:32;;;;;;;;;;;;;;;18.33;96.35;99351.13;5034381;28;19927;-39
2022/05/15 01:50:57;;;;;;;;;;;;;;;18.21;97.44;99354.47;5028876;28;19916;-39
2022/05/15 01:53:22;;;;;;;;;;;;;;;17.63;100.00;99353.34;5013104;28;19931;-39
2022/05/15 01:55:48;;;;;;;;;;;;;;;17.49;100.00;99354.97;5033376;28;19921;-39
2022/05/15 01:58:13;;;;;;;;;;;;;;;17.45;100.00;99353.44;5041028;28;20033;-39
2022/05/15 02:00:38;;;;;;;;;;;;;;;17.68;100.00;99361.75;5027633;28;19928;-39
2022/05/15 02:03:03;;;;;;;;;;;;;;;17.56;100.00;99364.13;5026391;28;19920;-39
2022/05/15 02:05:29;;;;;;;;;;;;;;;18.41;98.16;99351.53;5030087;28;19917;-39
2022/05/15 02:07:54;;;;;;;;;;;;;;;18.48;96.75;99346.81;5031535;28;19927;-39
2022/05/15 02:10:19;;;;;;;;;;;;;;;18.27;97.01;99352.34;5032108;28;19971;-39
2022/05/15 02:12:44;;;;;;;;;;;;;;;18.24;94.84;99352.50;5013900;28;20002;-39
2022/05/15 02:15:10;;;;;;;;;;;;;;;18.15;98.51;99355.66;5025422;28;20019;-39
2022/05/15 02:17:35;;;;;;;;;;;;;;;17.94;98.78;99352.50;5010486;28;19924;-39
2022/05/15 02:20:01;;;;;;;;;;;;;;;18.39;97.17;99349.00;5027393;28;19924;-39
2022/05/15 02:22:26;;;;;;;;;;;;;;;18.64;94.53;99347.56;5026998;28;19925;-40
2022/05/15 02:24:51;;;;;;;;;;;;;;;18.79;93.42;99338.88;5027461;28;20788;-39
2022/05/15 02:27:16;;;;;;;;;;;;;;;18.89;91.67;99335.69;5011213;28;20374;-39
2022/05/15 02:29:42;;;;;;;;;;;;;;;19.15;90.98;99337.53;5009404;28;20298;-39
2022/05/15 02:32:07;;;;;;;;;;;;;;;19.11;89.93;99336.06;5027559;28;19927;-39
2022/05/15 02:34:32;;;;;;;;;;;;;;;18.60;92.88;99340.84;5011508;28;19931;-39
2022/05/15 02:36:57;;;;;;;;;;;;;;;18.44;94.36;99340.09;5028136;28;19916;-39
2022/05/15 02:39:23;;;;;;;;;;;;;;;18.68;93.84;99332.56;5024873;28;20039;-39
2022/05/15 02:41:48;;;;;;;;;;;;;;;19.03;91.80;99338.28;5027992;28;20008;-39
2022/05/15 02:44:13;;;;;;;;;;;;;;;18.75;94.34;99334.72;5028442;28;19925;-39
2022/05/15 02:46:38;;;;;;;;;;;;;;;18.55;93.66;99340.28;5011468;28;19971;-39
2022/05/15 02:52:01;;;;;;;;;;;;;;;18.78;91.11;99339.78;4997982;28;20007;-39
2022/05/15 02:54:26;;;;;;;;;;;;;;;18.76;93.07;99336.38;5027505;28;19948;-39
2022/05/15 02:56:51;;;;;;;;;;;;;;;18.95;91.41;99340.53;5029809;28;19920;-40
2022/05/15 02:59:16;;;;;;;;;;;;;;;19.09;89.81;99339.66;5032629;28;19927;-39
2022/05/15 03:01:42;;;;;;;;;;;;;;;18.95;90.76;99336.16;5028372;28;19970;-39
2022/05/15 03:04:07;;;;;;;;;;;;;;;18.92;90.43;99335.50;5023984;28;20011;-39
2022/05/15 03:06:32;;;;;;;;;;;;;;;19.04;89.30;99344.34;5028603;28;19948;-39
2022/05/15 03:08:57;;;;;;;;;;;;;;;18.97;89.20;99339.50;5028486;28;19928;-39
2022/05/15 03:11:23;;;;;;;;;;;;;;;18.49;91.92;99338.88;5032586;28;19981;-39
2022/05/15 03:13:48;;;;;;;;;;;;;;;18.80;91.09;99337.91;5031736;28;20385;-39
2022/05/15 03:16:15;;;;;;;;;;;;;;;18.69;90.94;99334.25;5031989;28;19928;-39
2022/05/15 03:18:47;;;;;;;;;;;;;;;18.75;91.07;99339.09;5035068;28;19921;-39
2022/05/15 03:21:28;;;;;;;;;;;;;;;18.70;91.27;99344.59;5031806;28;19960;-39
2022/05/15 03:23:53;;;;;;;;;;;;;;;18.59;90.72;99333.97;5012926;28;19966;-39
2022/05/15 03:26:19;;;;;;;;;;;;;;;18.59;91.49;99344.41;5030313;28;20356;-39
2022/05/15 03:28:44;;;;;;;;;;;;;;;18.63;90.50;99345.88;5030022;28;19916;-39
2022/05/15 03:31:09;;;;;;;;;;;;;;;18.71;90.59;99348.03;5029649;28;19917;-39
2022/05/15 03:33:34;;;;;;;;;;;;;;;18.79;90.46;99351.03;5028550;28;19944;-39
2022/05/15 03:35:59;;;;;;;;;;;;;;;18.68;90.25;99349.06;5031448;28;19920;-39
2022/05/15 03:38:25;;;;;;;;;;;;;;;18.62;90.32;99349.44;5029138;28;20386;-39
2022/05/15 03:40:50;;;;;;;;;;;;;;;18.22;91.01;99356.97;5026733;28;19921;-39
2022/05/15 03:43:15;;;;;;;;;;;;;;;18.59;90.72;99349.63;5026945;28;20165;-39
2022/05/15 03:45:40;;;;;;;;;;;;;;;18.52;91.42;99356.09;5027809;28;19933;-39
2022/05/15 03:48:06;;;;;;;;;;;;;;;18.51;91.69;99351.84;5029661;28;19932;-39
2022/05/15 03:50:31;;;;;;;;;;;;;;;17.91;94.53;99363.13;5012625;28;19921;-39
2022/05/15 03:52:57;;;;;;;;;;;;;;;17.82;96.29;99361.84;5026587;28;19928;-39
2022/05/15 03:55:22;;;;;;;;;;;;;;;18.48;93.20;99357.25;5028334;28;19928;-40
2022/05/15 03:57:49;;;;;;;;;;;;;;;18.14;92.52;99357.44;5027524;28;20475;-39
2022/05/15 04:00:15;;;;;;;;;;;;;;;18.42;93.45;99354.97;5030580;28;19920;-39
2022/05/15 04:02:41;;;;;;;;;;;;;;;18.43;92.94;99348.81;5033924;28;19923;-39
2022/05/15 04:05:06;;;;;;;;;;;;;;;18.29;91.69;99354.84;5030584;28;19943;-39
2022/05/15 04:07:32;;;;;;;;;;;;;;;18.51;93.27;99352.66;5030743;28;20630;-39
2022/05/15 04:09:57;;;;;;;;;;;;;;;18.62;92.32;99344.22;5010186;28;19929;-39
2022/05/15 04:12:22;;;;;;;;;;;;;;;18.67;92.55;99350.00;5031048;28;19969;-39
2022/05/15 04:14:47;;;;;;;;;;;;;;;18.50;93.58;99355.38;5032358;28;20023;-39
2022/05/15 04:17:13;;;;;;;;;;;;;;;18.71;93.43;99348.03;5032828;28;20007;-39
2022/05/15 04:19:38;;;;;;;;;;;;;;;18.79;93.50;99344.09;5032345;28;19956;-39
2022/05/15 04:22:05;;;;;;;;;;;;;;;18.55;94.35;99348.13;5026221;28;19917;-39
2022/05/15 04:24:30;;;;;;;;;;;;;;;18.78;93.33;99338.94;5028342;28;20763;-39
2022/05/15 04:26:56;;;;;;;;;;;;;;;19.05;93.10;99346.88;5033473;28;19967;-39
2022/05/15 04:29:21;;;;;;;;;;;;;;;19.12;91.87;99340.34;5035049;28;19925;-39
2022/05/15 04:31:46;;;;;;;;;;;;;;;19.25;92.03;99342.16;5019360;28;20740;-39
2022/05/15 04:34:11;;;;;;;;;;;;;;;19.29;92.47;99338.44;5032711;28;20303;-39
2022/05/15 04:36:37;;;;;;;;;;;;;;;19.40;92.35;99338.59;5018692;28;19920;-39
2022/05/15 04:39:03;;;;;;;;;;;;;;;18.95;94.18;99335.31;5015545;28;19942;-39
2022/05/15 04:41:28;;;;;;;;;;;;;;;18.78;95.98;99338.94;5028494;28;19960;-39
2022/05/15 04:43:53;;;;;;;;;;;;;;;18.90;95.80;99337.34;5033836;28;19920;-39
2022/05/15 04:46:18;;;;;;;;;;;;;;;18.93;92.75;99334.56;5037215;28;19920;-39
2022/05/15 04:48:44;;;;;;;;;;;;;;;19.22;95.18;99346.66;5032231;28;19928;-39
2022/05/15 04:51:09;;;;;;;;;;;;;;;19.43;92.15;99335.78;5030290;28;20035;-39
2022/05/15 04:53:35;;;;;;;;;;;;;;;18.89;94.98;99340.91;5032131;28;20152;-40
2022/05/15 04:56:01;;;;;;;;;;;;;;;19.27;94.46;99340.31;5034882;28;19917;-39
2022/05/15 04:58:27;;;;;;;;;;;;;;;19.11;93.93;99346.50;5017043;28;20266;-39
2022/05/15 05:00:52;;;;;;;;;;;;;;;19.79;93.28;99340.47;5028264;28;19975;-48
2022/05/15 05:03:17;;;;;;;;;;;;;;;18.72;95.74;99347.94;5036870;28;20265;-39
2022/05/15 05:05:43;;;;;;;;;;;;;;;18.31;100.00;99351.22;5036059;28;19921;-39
2022/05/15 05:08:08;;;;;;;;;;;;;;;18.87;98.17;99338.38;5037184;28;19964;-39
2022/05/15 05:10:34;;;;;;;;;;;;;;;19.74;93.78;99345.16;5037827;28;19975;-39
2022/05/15 05:12:59;;;;;;;;;;;;;;;19.20;97.31;99351.16;5036371;28;19928;-40
2022/05/15 05:15:24;;;;;;;;;;;;;;;19.06;96.32;99345.91;5046387;28;20734;-39
2022/05/15 05:17:49;;;;;;;;;;;;;;;18.22;98.60;99354.38;5037068;28;19940;-39
2022/05/15 05:20:15;;;;;;;;;;;;;;;18.90;98.59;99342.56;5040521;28;19920;-39
2022/05/15 05:22:40;;;;;;;;;;;;;;;19.07;97.81;99347.63;5017083;28;20584;-39
2022/05/15 05:25:06;;;;;;;;;;;;;;;18.58;100.00;99347.94;5033833;28;19950;-39
2022/05/15 05:27:31;;;;;;;;;;;;;;;18.34;100.00;99353.66;5033668;28;19924;-39
2022/05/15 05:29:57;;;;;;;;;;;;;;;17.98;100.00;99356.63;5044030;28;20008;-39
2022/05/15 05:32:23;;;;;;;;;;;;;;;18.88;100.00;99350.50;5018625;28;19921;-39
2022/05/15 05:34:48;;;;;;;;;;;;;;;18.61;99.74;99358.19;5023470;28;19974;-39
2022/05/15 05:37:15;;;;;;;;;;;;;;;18.49;100.00;99356.28;5040733;28;20469;-39
2022/05/15 05:39:40;;;;;;;;;;;;;;;18.54;100.00;99349.91;5018866;28;20449;-39
2022/05/15 05:42:05;;;;;;;;;;;;;;;19.16;100.00;99354.88;5016025;28;20151;-39
2022/05/15 05:44:31;;;;;;;;;;;;;;;19.04;100.00;99358.22;5029716;28;20497;-39
2022/05/15 05:46:56;;;;;;;;;;;;;;;19.20;100.00;99358.13;5031892;28;19936;-39
2022/05/15 05:49:21;;;;;;;;;;;;;;;20.17;96.06;99352.00;5032314;28;20342;-39
2022/05/15 05:51:47;;;;;;;;;;;;;;;19.92;97.46;99364.06;5035951;28;19940;-39
2022/05/15 05:54:12;;;;;;;;;;;;;;;20.66;95.17;99356.56;5033378;28;19959;-39
2022/05/15 05:56:38;;;;;;;;;;;;;;;19.51;100.00;99370.13;5032154;28;19921;-39
2022/05/15 05:59:03;;;;;;;;;;;;;;;20.42;95.79;99362.50;5032993;28;19920;-39
2022/05/15 06:01:28;;;;;;;;;;;;;;;20.14;97.72;99373.09;5029471;28;19920;-39
2022/05/15 06:06:37;;;;;;;;;;;;;;;20.74;96.73;99367.38;5032573;28;19974;-39
2022/05/15 06:09:02;;;;;;;;;;;;;;;22.59;86.62;99356.78;5030712;28;20020;-39
2022/05/15 06:11:28;;;;;;;;;;;;;;;21.39;89.08;99374.19;5030634;28;20024;-39
2022/05/15 06:13:53;;;;;;;;;;;;;;;20.94;93.45;99380.84;5027212;28;20732;-39
2022/05/15 06:16:18;;;;;;;;;;;;;;;20.97;94.43;99381.50;5029573;28;19965;-39
2022/05/15 06:18:44;;;;;;;;;;;;;;;21.90;88.95;99379.31;5032109;28;20032;-39
2022/05/15 06:21:09;;;;;;;;;;;;;;;21.86;85.70;99387.50;5029873;28;20006;-40
2022/05/15 06:23:34;;;;;;;;;;;;;;;21.30;88.77;99390.56;5028838;28;19996;-39
2022/05/15 06:26:00;;;;;;;;;;;;;;;22.85;85.10;99376.59;5030475;28;20901;-39
2022/05/15 06:28:25;;;;;;;;;;;;;;;22.27;83.90;99375.78;5032522;28;20062;-39
2022/05/15 06:30:50;;;;;;;;;;;;;;;22.71;83.25;99379.47;5030571;28;20028;-39
2022/05/15 06:33:15;;;;;;;;;;;;;;;23.21;81.64;99379.16;5033594;28;19984;-39
2022/05/15 06:35:41;;;;;;;;;;;;;;;24.06;76.81;99368.81;5030100;28;19917;-40
2022/05/15 06:38:06;;;;;;;;;;;;;;;23.29;83.60;99367.09;5033249;28;20016;-39
2022/05/15 06:40:32;;;;;;;;;;;;;;;24.68;78.78;99361.94;5030523;28;20537;-39
2022/05/15 06:42:57;;;;;;;;;;;;;;;23.31;76.13;99373.06;5027282;28;19927;-39
2022/05/15 06:45:22;;;;;;;;;;;;;;;24.35;79.75;99365.59;5031680;28;20266;-39
2022/05/15 06:47:48;;;;;;;;;;;;;;;24.09;74.92;99367.75;5030721;28;19928;-40
2022/05/15 06:50:13;;;;;;;;;;;;;;;24.38;73.80;99365.31;5031344;28;20413;-40
2022/05/15 06:52:38;;;;;;;;;;;;;;;23.84;71.49;99353.16;5013892;28;19932;-39
2022/05/15 06:55:06;;;;;;;;;;;;;;;24.97;77.89;99351.53;5026557;28;19925;-39
2022/05/15 06:57:33;;;;;;;;;;;;;;;25.72;72.61;99359.94;5028251;28;19928;-39
2022/05/15 06:59:58;;;;;;;;;;;;;;;25.36;77.70;99359.63;5014114;28;20039;-39
2022/05/15 07:02:24;;;;;;;;;;;;;;;25.50;78.61;99361.03;5032342;28;19912;-40
2022/05/15 07:04:49;;;;;;;;;;;;;;;25.67;78.26;99355.09;5026683;28;20023;-40
2022/05/15 07:07:15;;;;;;;;;;;;;;;25.90;78.29;99361.94;5026295;28;19928;-40
2022/05/15 07:09:40;;;;;;;;;;;;;;;26.16;74.94;99357.78;5008762;28;20135;-40
2022/05/15 07:12:06;;;;;;;;;;;;;;;26.38;73.92;99355.81;5029009;28;20461;-40
2022/05/15 07:14:32;;;;;;;;;;;;;;;25.88;76.53;99362.91;5012846;28;19948;-39
2022/05/15 07:16:58;;;;;;;;;;;;;;;26.76;75.34;99354.91;5031290;28;20369;-40
2022/05/15 07:19:23;;;;;;;;;;;;;;;25.90;80.14;99356.69;5012408;28;19916;-40
2022/05/15 07:21:48;;;;;;;;;;;;;;;24.14;87.35;99368.22;5026598;28;20007;-40
2022/05/15 07:24:14;;;;;;;;;;;;;;;25.38;82.35;99356.84;5030552;28;20031;-39
2022/05/15 07:26:44;;;;;;;;;;;;;;;25.85;79.46;99354.41;5027779;28;20071;-40
2022/05/15 07:29:09;;;;;;;;;;;;;;;25.90;82.41;99359.31;5033045;28;19932;-40
2022/05/15 07:31:34;;;;;;;;;;;;;;;26.12;77.98;99361.69;5030201;28;19920;-40
2022/05/15 07:33:59;;;;;;;;;;;;;;;25.74;80.15;99373.00;5034307;28;20309;-40
2022/05/15 07:36:25;;;;;;;;;;;;;;;26.57;76.01;99358.44;5033602;28;20805;-40
2022/05/15 07:38:50;;;;;;;;;;;;;;;26.51;75.03;99361.63;5032319;28;19917;-40
2022/05/15 07:41:15;;;;;;;;;;;;;;;26.57;74.66;99358.44;5031024;28;19920;-40
2022/05/15 07:43:41;;;;;;;;;;;;;;;27.04;74.44;99357.59;5028344;28;20631;-40
2022/05/15 07:46:07;;;;;;;;;;;;;;;26.23;75.58;99353.59;5029197;28;20793;-40
2022/05/15 07:48:32;;;;;;;;;;;;;;;26.82;76.22;99356.13;5006400;28;19917;-40
2022/05/15 07:50:57;;;;;;;;;;;;;;;26.99;75.47;99350.09;5030088;28;19921;-40
2022/05/15 07:53:22;;;;;;;;;;;;;;;25.16;71.56;99342.06;5004563;28;19974;-40
2022/05/15 07:55:48;;;;;;;;;;;;;;;26.64;76.95;99335.75;5011035;28;19995;-40
2022/05/15 07:58:13;;;;;;;;;;;;;;;26.62;73.11;99340.34;5028674;28;19920;-40
2022/05/15 08:00:38;;;;;;;;;;;;;;;25.12;78.09;99343.28;5032261;28;19927;-40
2022/05/15 08:03:07;;;;;;;;;;;;;;;25.83;75.40;99341.34;5014555;28;19983;-40
2022/05/15 08:08:33;;;;;;;;;;;;;;;26.35;73.03;99329.69;4974653;28;19926;-40
2022/05/15 08:10:59;;;;;;;;;;;;;;;25.71;71.52;99341.63;5024264;28;20913;-39
2022/05/15 08:13:29;;;;;;;;;;;;;;;26.13;68.99;99331.66;5036871;28;20394;-40
2022/05/15 08:15:54;;;;;;;;;;;;;;;26.68;67.40;99337.13;5034867;28;20867;-40
2022/05/15 08:23:49;;;;;;;;;;;;;;;27.02;50.94;99319.88;5033746;28;19928;-40
2022/05/15 08:26:15;;;;;;;;;;;;;;;26.27;53.60;99323.31;5014803;28;19928;-40
2022/05/15 08:28:40;;;;;;;;;;;;;;;25.44;52.46;99338.69;5029386;28;19928;-40
2022/05/15 08:31:06;;;;;;;;;;;;;;;26.78;48.88;99323.06;5015288;28;19925;-40
2022/05/15 08:33:33;;;;;;;;;;;;;;;25.73;49.24;99329.97;5005565;28;19925;-40
2022/05/15 08:35:58;;;;;;;;;;;;;;;27.09;50.11;99319.16;5032051;28;20277;-40
2022/05/15 08:38:23;;;;;;;;;;;;;;;26.25;51.37;99325.25;5032030;28;19921;-40
2022/05/15 08:40:54;;;;;;;;;;;;;;;25.93;48.11;99325.53;5035295;28;20378;-40
2022/05/15 08:43:21;;;;;;;;;;;;;;;24.94;53.46;99332.53;5035069;28;19920;-40
2022/05/15 08:45:51;;;;;;;;;;;;;;;26.92;46.27;99312.84;5031645;28;19960;-40
2022/05/15 08:48:16;;;;;;;;;;;;;;;25.86;48.47;99320.00;5030831;28;19931;-40
2022/05/15 08:50:43;;;;;;;;;;;;;;;26.27;49.76;99318.03;5012936;28;19920;-40
2022/05/15 08:53:09;;;;;;;;;;;;;;;27.98;48.05;99316.78;5025628;28;19920;-40
2022/05/15 08:55:44;;;;;;;;;;;;;;;27.41;46.54;99311.75;5009648;28;19932;-40
2022/05/15 08:58:09;;;;;;;;;;;;;;;27.22;50.56;99312.72;5006778;28;20041;-40
2022/05/15 09:00:43;;;;;;;;;;;;;;;27.91;48.78;99314.75;5027401;28;20020;-40
2022/05/15 09:03:08;;;;;;;;;;;;;;;26.40;47.04;99311.59;5032952;28;19924;-40
2022/05/15 09:05:33;;;;;;;;;;;;;;;26.12;47.36;99308.88;5033809;28;19920;-40
2022/05/15 09:07:59;;;;;;;;;;;;;;;27.19;44.30;99310.34;5011923;28;20692;-40
2022/05/15 09:10:34;;;;;;;;;;;;;;;26.55;44.79;99310.22;5033078;28;19917;-40
2022/05/15 09:13:01;;;;;;;;;;;;;;;26.41;45.50;99310.63;5016405;28;20809;-39
2022/05/15 09:15:27;;;;;;;;;;;;;;;25.75;46.65;99325.41;5015843;28;19975;-39
2022/05/15 09:17:57;;;;;;;;;;;;;;;27.09;44.80;99305.94;5016719;28;20738;-40
2022/05/15 09:20:41;;;;;;;;;;;;;;;27.67;46.21;99306.59;5034626;28;20784;-40
2022/05/15 09:23:06;;;;;;;;;;;;;;;29.44;44.47;99307.16;5031246;28;19983;-40
2022/05/15 09:25:33;;;;;;;;;;;;;;;28.27;42.28;99304.09;5029174;28;19917;-40
2022/05/15 09:28:09;;;;;;;;;;;;;;;27.15;47.18;99309.81;5018130;28;19975;-40
2022/05/15 09:30:38;;;;;;;;;;;;;;;27.73;44.49;99305.94;5037026;28;19971;-40
2022/05/15 09:33:03;;;;;;;;;;;;;;;27.98;43.17;99296.44;5034229;28;19956;-38
2022/05/15 09:35:41;;;;;;;;;;;;;;;28.17;41.14;99298.09;5009639;28;20039;-37
2022/05/15 09:43:37;;;;;;;;;;;;;;;28.85;42.46;99301.78;5029011;28;20752;-40
2022/05/15 09:46:08;;;;;;;;;;;;;;;27.28;43.75;99301.56;5030244;28;19917;-40
2022/05/15 09:48:36;;;;;;;;;;;;;;;29.09;43.10;99288.66;5014830;28;19924;-39
2022/05/15 09:51:02;;;;;;;;;;;;;;;28.63;42.95;99290.78;5006324;28;20011;-40
2022/05/15 09:53:36;;;;;;;;;;;;;;;28.16;42.80;99293.75;5026665;28;19921;-40
2022/05/15 09:56:19;;;;;;;;;;;;;;;27.58;43.21;99286.31;5030315;28;19924;-38
2022/05/15 09:58:47;;;;;;;;;;;;;;;28.55;45.54;99290.72;5025644;28;19931;-38
2022/05/15 10:01:36;;;;;;;;;;;;;;;28.42;42.63;99290.28;5027447;28;19971;-39
2022/05/15 10:04:02;;;;;;;;;;;;;;;28.21;40.31;99294.13;5022270;28;20027;-39
2022/05/15 10:06:28;;;;;;;;;;;;;;;28.86;39.11;99282.25;5012265;28;19960;-39
2022/05/15 10:09:12;;;;;;;;;;;;;;;28.40;40.98;99279.84;5028960;28;21355;-39
2022/05/15 10:11:39;;;;;;;;;;;;;;;29.80;40.86;99273.22;5011081;28;20469;-39
2022/05/15 10:14:05;;;;;;;;;;;;;;;28.82;41.23;99279.09;5026408;28;20170;-39
2022/05/15 10:16:34;;;;;;;;;;;;;;;30.42;42.35;99275.31;5007820;28;20373;-39
2022/05/15 10:19:02;;;;;;;;;;;;;;;30.09;40.15;99282.50;5012180;28;20401;-39
2022/05/15 10:21:47;;;;;;;;;;;;;;;28.74;41.57;99279.91;5024300;28;19959;-39
2022/05/15 10:24:14;;;;;;;;;;;;;;;27.76;42.77;99281.84;5010206;28;19931;-39
2022/05/15 10:26:46;;;;;;;;;;;;;;;28.00;44.12;99269.81;5008089;28;19928;-39
2022/05/15 10:29:11;;;;;;;;;;;;;;;29.87;40.82;99260.09;5015648;28;20037;-39
2022/05/15 10:31:42;;;;;;;;;;;;;;;29.56;41.01;99271.34;5029866;28;19925;-39
2022/05/15 10:34:11;;;;;;;;;;;;;;;29.08;41.25;99276.41;5008248;28;19929;-39
2022/05/15 10:36:56;;;;;;;;;;;;;;;29.55;40.31;99257.25;5011737;28;19925;-39
2022/05/15 10:39:30;;;;;;;;;;;;;;;29.95;39.08;99258.28;5025899;28;20717;-39
2022/05/15 10:41:55;;;;;;;;;;;;;;;30.59;41.61;99255.66;5026267;28;19925;-39
2022/05/15 10:44:34;;;;;;;;;;;;;;;29.16;42.27;99264.97;5034174;28;19966;-39
2022/05/15 10:47:11;;;;;;;;;;;;;;;28.26;40.32;99262.72;5029392;28;19928;-39
2022/05/15 10:49:55;;;;;;;;;;;;;;;28.39;42.61;99248.22;5016254;28;20017;-39
2022/05/15 10:52:24;;;;;;;;;;;;;;;29.40;40.41;99248.28;5022842;28;19916;-39
2022/05/15 10:57:39;;;;;;;;;;;;;;;29.45;42.48;99240.66;5030099;28;20067;-39
2022/05/15 11:00:09;;;;;;;;;;;;;;;29.75;40.38;99230.41;5036500;28;19916;-39
2022/05/15 11:02:37;;;;;;;;;;;;;;;29.67;39.27;99238.34;5011911;28;19986;-39
2022/05/15 11:05:21;;;;;;;;;;;;;;;29.47;42.32;99243.97;5032325;28;20015;-39
2022/05/15 11:07:49;;;;;;;;;;;;;;;30.28;38.97;99231.69;5034581;28;19927;-39
2022/05/15 11:10:18;;;;;;;;;;;;;;;29.63;39.28;99231.69;5029344;28;20298;-39
2022/05/15 11:13:04;;;;;;;;;;;;;;;30.78;38.99;99224.34;5031656;28;19921;-39
2022/05/15 11:15:41;;;;;;;;;;;;;;;30.90;40.45;99219.50;5017458;28;19948;-39
2022/05/15 11:18:07;;;;;;;;;;;;;;;29.64;39.99;99230.72;5007343;28;19921;-39
2022/05/15 11:20:37;;;;;;;;;;;;;;;28.67;41.09;99230.31;5034043;28;19917;-39
2022/05/15 11:23:13;;;;;;;;;;;;;;;31.71;37.29;99206.66;5013588;28;19924;-39
2022/05/15 11:25:41;;;;;;;;;;;;;;;29.09;37.96;99217.06;5031178;28;20070;-39
2022/05/15 11:28:15;;;;;;;;;;;;;;;30.03;38.78;99218.41;5014228;28;19996;-40
2022/05/15 11:30:41;;;;;;;;;;;;;;;28.01;41.42;99229.09;5010495;28;19924;-40
2022/05/15 11:33:10;;;;;;;;;;;;;;;29.78;41.24;99203.53;5033352;28;19925;-40
2022/05/15 11:35:37;;;;;;;;;;;;;;;28.82;41.47;99212.00;5034886;28;20386;-40
2022/05/15 11:38:05;;;;;;;;;;;;;;;30.24;41.33;99211.72;5039248;28;19916;-40
2022/05/15 11:40:34;;;;;;;;;;;;;;;30.99;38.60;99192.66;5040569;28;19924;-40
2022/05/15 11:42:59;;;;;;;;;;;;;;;30.05;37.59;99199.66;5039344;28;20375;-39
2022/05/15 11:45:35;;;;;;;;;;;;;;;31.72;35.98;99181.66;5036192;28;19920;-39
2022/05/15 11:48:04;;;;;;;;;;;;;;;30.81;37.83;99192.94;5033934;28;19927;-39
2022/05/15 11:50:30;;;;;;;;;;;;;;;30.76;36.39;99181.97;5013091;28;19917;-39
2022/05/15 11:52:56;;;;;;;;;;;;;;;30.96;37.91;99176.25;5033039;28;20600;-39
2022/05/15 11:55:38;;;;;;;;;;;;;;;30.76;36.67;99171.34;5034917;28;19931;-39
2022/05/15 11:58:09;;;;;;;;;;;;;;;29.96;40.06;99184.75;5017022;28;19921;-39
2022/05/15 12:00:34;;;;;;;;;;;;;;;31.13;36.46;99177.78;5038163;28;19923;-39
2022/05/15 12:02:59;;;;;;;;;;;;;;;31.31;37.05;99169.50;5038001;28;19917;-39
2022/05/15 12:05:29;;;;;;;;;;;;;;;30.98;38.13;99168.94;5013588;28;19964;-39
2022/05/15 12:08:01;;;;;;;;;;;;;;;30.39;36.72;99164.06;5018082;28;19916;-40
2022/05/15 12:10:33;;;;;;;;;;;;;;;31.42;37.10;99173.59;5015936;28;19924;-39
2022/05/15 12:13:04;;;;;;;;;;;;;;;32.00;36.63;99168.56;5033449;28;20409;-39
2022/05/15 12:15:34;;;;;;;;;;;;;;;31.67;36.51;99169.72;5032906;28;19921;-40
2022/05/15 12:18:00;;;;;;;;;;;;;;;31.31;35.71;99163.34;5029069;28;19956;-39
2022/05/15 12:20:28;;;;;;;;;;;;;;;31.25;35.44;99157.75;5018701;28;20003;-40
2022/05/15 12:22:55;;;;;;;;;;;;;;;32.01;35.58;99160.41;5031498;28;20004;-39
2022/05/15 12:25:26;;;;;;;;;;;;;;;31.02;35.75;99154.28;5034690;28;20020;-39
2022/05/15 12:31:05;;;;;;;;;;;;;;;31.75;35.89;99155.50;5026916;28;19947;-39
2022/05/15 12:33:30;;;;;;;;;;;;;;;32.01;34.70;99155.06;5015152;28;19956;-40
2022/05/15 12:35:55;;;;;;;;;;;;;;;32.81;33.46;99156.09;5035580;28;19927;-39
2022/05/15 12:38:22;;;;;;;;;;;;;;;31.19;35.37;99161.09;5019034;28;19917;-40
2022/05/15 12:41:00;;;;;;;;;;;;;;;31.82;32.79;99152.94;5017576;28;19971;-39
2022/05/15 12:43:55;;;;;;;;;;;;;;;31.25;34.39;99151.59;5016626;28;19995;-40
2022/05/15 12:46:31;;;;;;;;;;;;;;;31.75;36.50;99150.19;5008067;28;20553;-40
2022/05/15 12:48:56;;;;;;;;;;;;;;;32.71;33.39;99151.06;5033939;28;20043;-39
2022/05/15 12:51:29;;;;;;;;;;;;;;;34.39;34.47;99143.34;5032978;28;20031;-40
2022/05/15 12:53:55;;;;;;;;;;;;;;;33.53;31.12;99138.31;5019499;28;19927;-40
2022/05/15 12:56:29;;;;;;;;;;;;;;;32.21;34.11;99143.88;5016791;28;19925;-40
2022/05/15 12:58:59;;;;;;;;;;;;;;;33.06;34.43;99137.06;5034295;28;20393;-40
2022/05/15 13:01:28;;;;;;;;;;;;;;;32.48;33.90;99137.03;5031861;28;19969;-39
2022/05/15 13:03:56;;;;;;;;;;;;;;;32.61;32.87;99129.19;5036825;28;20446;-40
2022/05/15 13:06:27;;;;;;;;;;;;;;;32.57;33.38;99135.94;5033130;28;20405;-40
2022/05/15 13:08:54;;;;;;;;;;;;;;;32.06;33.51;99131.38;5012031;28;19971;-40
2022/05/15 13:11:24;;;;;;;;;;;;;;;34.25;31.11;99114.91;5029333;28;19917;-40